Time;durP1;ratioP1;P1;durP2;ratioP2;P2;SDS_P1;SDS_P2;PMS_P1;PMS_P2;Temp;Humidity;BMP_temperature;BMP_pressure;BME280_temperature;BME280_humidity;BME280_pressure;Samples;Min_cycle;Max_cycle;Signal;HPM_P1;HPM_P2
2021/06/11 00:00:21;;;;;;;6.23;5.57;;;20.10;1.00;;;;;;5071291;28;20488;-79
2021/06/11 00:02:48;;;;;;;4.87;4.50;;;20.10;1.00;;;;;;5065962;28;20459;-80
2021/06/11 00:05:15;;;;;;;5.73;5.23;;;20.00;1.00;;;;;;5067174;28;20450;-81
2021/06/11 00:07:41;;;;;;;5.37;4.97;;;20.00;1.00;;;;;;5055836;28;20487;-79
2021/06/11 00:10:13;;;;;;;6.00;5.50;;;20.00;1.00;;;;;;5068692;28;20590;-80
2021/06/11 00:12:39;;;;;;;11.40;6.40;;;20.00;1.00;;;;;;5068855;28;20424;-80
2021/06/11 00:15:08;;;;;;;5.93;5.33;;;19.90;1.00;;;;;;5052483;28;20501;-79
2021/06/11 00:17:34;;;;;;;6.40;5.63;;;19.80;1.00;;;;;;5069987;28;20452;-80
2021/06/11 00:20:01;;;;;;;5.77;5.30;;;19.80;1.00;;;;;;5069061;28;21056;-80
2021/06/11 00:22:27;;;;;;;6.20;5.70;;;19.80;1.00;;;;;;5070653;28;20447;-80
2021/06/11 00:24:53;;;;;;;6.33;5.73;;;19.80;1.00;;;;;;5070502;28;20485;-79
2021/06/11 00:27:21;;;;;;;4.90;4.50;;;19.80;1.00;;;;;;5072249;28;20442;-79
2021/06/11 00:29:50;;;;;;;6.17;5.57;;;19.80;1.00;;;;;;5064163;28;20467;-79
2021/06/11 00:32:16;;;;;;;5.83;5.33;;;19.80;1.00;;;;;;5066577;28;20470;-80
2021/06/11 00:34:43;;;;;;;6.40;5.90;;;19.90;1.00;;;;;;5064232;28;20430;-79
2021/06/11 00:37:15;;;;;;;5.73;5.23;;;19.90;1.00;;;;;;5070715;28;20448;-81
2021/06/11 00:39:42;;;;;;;5.90;5.40;;;20.00;1.00;;;;;;5066019;28;20961;-79
2021/06/11 00:42:11;;;;;;;6.00;5.17;;;19.90;1.00;;;;;;5074452;28;20455;-78
2021/06/11 00:44:39;;;;;;;6.00;5.10;;;19.90;1.00;;;;;;5070971;28;20416;-80
2021/06/11 00:47:05;;;;;;;5.40;5.00;;;20.00;1.00;;;;;;5064507;28;20425;-79
2021/06/11 00:49:32;;;;;;;6.13;5.73;;;19.90;1.00;;;;;;5066085;28;20400;-79
2021/06/11 00:51:59;;;;;;;5.43;5.03;;;19.90;1.00;;;;;;5060623;28;20469;-78
2021/06/11 00:54:26;;;;;;;5.47;5.07;;;19.90;1.00;;;;;;5062894;28;20530;-79
2021/06/11 00:56:52;;;;;;;5.50;5.00;;;19.90;1.00;;;;;;5061990;28;20467;-81
2021/06/11 00:59:19;;;;;;;5.63;5.23;;;19.90;1.00;;;;;;5064848;28;20527;-79
2021/06/11 01:01:46;;;;;;;5.87;5.37;;;20.00;1.00;;;;;;5065302;28;20436;-79
2021/06/11 01:04:12;;;;;;;5.80;5.30;;;19.90;1.00;;;;;;5060252;28;20458;-80
2021/06/11 01:06:41;;;;;;;5.70;5.30;;;19.90;1.00;;;;;;5063074;28;20444;-80
2021/06/11 01:09:08;;;;;;;6.07;5.53;;;19.90;1.00;;;;;;5060608;28;20492;-80
2021/06/11 01:11:36;;;;;;;5.27;4.87;;;19.90;1.00;;;;;;5062732;28;20547;-80
2021/06/11 01:14:03;;;;;;;5.50;5.00;;;20.00;1.00;;;;;;5045140;28;20455;-82
2021/06/11 01:16:30;;;;;;;5.80;5.20;;;20.00;1.00;;;;;;5074336;28;20618;-80
2021/06/11 01:18:58;;;;;;;6.33;5.10;;;20.00;1.00;;;;;;5105333;22;20468;-78
2021/06/11 01:21:29;;;;;;;11.63;5.60;;;20.00;1.00;;;;;;5034879;28;20455;-77
2021/06/11 01:24:12;;;;;;;6.27;5.73;;;20.00;1.00;;;;;;5053523;28;24069;-77
2021/06/11 01:26:43;;;;;;;6.10;5.60;;;20.10;1.00;;;;;;5051741;28;20444;-78
2021/06/11 01:29:11;;;;;;;7.13;6.33;;;20.10;1.00;;;;;;5035757;28;20491;-78
2021/06/11 01:31:40;;;;;;;5.20;4.90;;;20.10;1.00;;;;;;5029145;28;22080;-78
2021/06/11 01:34:10;;;;;;;5.07;4.77;;;20.10;1.00;;;;;;5035532;28;20450;-78
2021/06/11 01:36:40;;;;;;;8.10;5.50;;;20.10;1.00;;;;;;5032626;28;20449;-77
2021/06/11 01:39:08;;;;;;;6.03;5.53;;;20.10;1.00;;;;;;5030125;28;20463;-78
2021/06/11 01:41:35;;;;;;;9.80;5.70;;;20.10;1.00;;;;;;5033512;28;20466;-78
2021/06/11 01:44:05;;;;;;;5.83;5.33;;;20.10;1.00;;;;;;5031203;28;20460;-78
2021/06/11 01:46:34;;;;;;;6.07;5.50;;;20.10;1.00;;;;;;5032510;28;20895;-77
2021/06/11 01:49:02;;;;;;;6.70;5.80;;;20.10;1.00;;;;;;5038781;28;21274;-77
2021/06/11 01:51:29;;;;;;;5.93;5.40;;;20.10;1.00;;;;;;5039193;28;21112;-78
2021/06/11 01:53:59;;;;;;;10.93;5.87;;;20.10;1.00;;;;;;5031315;28;20456;-78
2021/06/11 01:56:26;;;;;;;5.90;5.30;;;20.10;1.00;;;;;;5032036;28;20561;-77
2021/06/11 01:58:53;;;;;;;7.23;5.23;;;20.10;1.00;;;;;;5033697;28;20460;-77
2021/06/11 02:01:22;;;;;;;6.33;5.93;;;20.10;1.00;;;;;;5033177;28;20480;-77
2021/06/11 02:03:50;;;;;;;6.77;6.27;;;20.10;1.00;;;;;;5029131;28;20471;-77
2021/06/11 02:06:19;;;;;;;7.63;5.47;;;20.00;1.00;;;;;;5029445;28;20467;-77
2021/06/11 02:08:46;;;;;;;7.03;6.37;;;20.00;1.00;;;;;;5044908;28;21073;-78
2021/06/11 02:11:13;;;;;;;7.50;6.50;;;20.00;1.00;;;;;;5027771;28;20510;-77
2021/06/11 02:13:43;;;;;;;5.47;5.07;;;20.00;1.00;;;;;;5029265;28;20437;-78
2021/06/11 02:16:10;;;;;;;6.53;6.03;;;20.00;1.00;;;;;;5029127;28;20868;-76
2021/06/11 02:18:38;;;;;;;6.43;5.93;;;19.90;1.00;;;;;;5028541;28;20527;-77
2021/06/11 02:21:05;;;;;;;6.17;5.57;;;19.90;1.00;;;;;;5028738;28;21212;-77
2021/06/11 02:23:32;;;;;;;5.97;5.47;;;19.90;1.00;;;;;;5028604;28;21317;-78
2021/06/11 02:25:58;;;;;;;6.60;5.73;;;19.90;1.00;;;;;;5030500;28;20428;-77
2021/06/11 02:28:24;;;;;;;6.70;6.10;;;19.80;1.00;;;;;;5029358;28;23640;-76
2021/06/11 02:30:51;;;;;;;6.80;6.20;;;19.80;1.00;;;;;;5028909;28;20540;-77
2021/06/11 02:33:18;;;;;;;7.37;6.77;;;19.80;1.00;;;;;;5028965;28;20448;-77
2021/06/11 02:35:46;;;;;;;7.67;6.97;;;19.80;1.00;;;;;;5028327;28;20461;-77
2021/06/11 02:38:12;;;;;;;6.43;5.93;;;19.80;1.00;;;;;;5028663;28;20463;-78
2021/06/11 02:40:38;;;;;;;8.23;5.90;;;19.80;1.00;;;;;;5028235;28;20523;-77
2021/06/11 02:43:08;;;;;;;6.93;6.33;;;19.70;1.00;;;;;;5031372;28;20451;-78
2021/06/11 02:45:38;;;;;;;8.20;7.03;;;19.70;1.00;;;;;;5028246;28;20468;-78
2021/06/11 02:48:13;;;;;;;7.23;6.47;;;19.70;1.00;;;;;;5031597;28;20452;-78
2021/06/11 02:50:45;;;;;;;6.60;6.00;;;19.70;1.00;;;;;;5035867;28;20465;-77
2021/06/11 02:53:15;;;;;;;7.03;6.07;;;19.70;1.00;;;;;;5039054;28;20547;-78
2021/06/11 02:55:43;;;;;;;7.90;7.20;;;19.80;1.00;;;;;;5034026;28;21367;-77
2021/06/11 02:58:13;;;;;;;6.90;6.40;;;19.80;1.00;;;;;;5032615;28;20449;-78
2021/06/11 03:00:41;;;;;;;7.47;6.67;;;19.80;1.00;;;;;;5031856;28;21198;-78
2021/06/11 03:03:13;;;;;;;11.00;6.87;;;19.80;1.00;;;;;;5032091;28;20437;-77
2021/06/11 03:05:41;;;;;;;38.10;9.30;;;19.80;1.00;;;;;;5032361;28;20440;-78
2021/06/11 03:08:10;;;;;;;14.20;7.30;;;19.80;1.00;;;;;;5036266;28;21290;-78
2021/06/11 03:10:40;;;;;;;11.17;7.50;;;19.90;1.00;;;;;;5036670;28;20467;-78
2021/06/11 03:13:08;;;;;;;10.70;9.40;;;19.90;1.00;;;;;;5042050;28;20423;-77
2021/06/11 03:15:37;;;;;;;8.43;7.40;;;19.90;1.00;;;;;;5042627;28;20539;-77
2021/06/11 03:18:07;;;;;;;9.10;8.30;;;19.90;1.00;;;;;;5042258;28;20476;-78
2021/06/11 03:20:37;;;;;;;8.47;7.13;;;19.90;1.00;;;;;;5040185;28;20479;-77
2021/06/11 03:23:08;;;;;;;8.07;7.27;;;19.90;1.00;;;;;;5042648;28;20454;-78
2021/06/11 03:25:42;;;;;;;8.30;7.50;;;20.00;1.00;;;;;;5043175;28;20459;-76
2021/06/11 03:28:13;;;;;;;11.30;7.23;;;19.90;1.00;;;;;;5028580;28;20556;-78
2021/06/11 03:30:45;;;;;;;8.17;7.47;;;19.90;1.00;;;;;;5048399;28;20464;-78
2021/06/11 03:33:14;;;;;;;8.53;7.93;;;20.00;1.00;;;;;;5019340;28;20433;-78
2021/06/11 03:35:44;;;;;;;9.53;8.63;;;20.00;1.00;;;;;;5033245;28;20463;-78
2021/06/11 03:38:18;;;;;;;9.30;8.40;;;20.00;1.00;;;;;;5033065;28;20455;-78
2021/06/11 03:40:48;;;;;;;8.40;7.60;;;20.00;1.00;;;;;;5015418;28;20477;-78
2021/06/11 03:43:16;;;;;;;10.13;8.13;;;20.00;1.00;;;;;;5033538;28;20530;-79
2021/06/11 03:45:43;;;;;;;12.97;7.60;;;20.00;1.00;;;;;;5034009;28;21441;-77
2021/06/11 03:48:10;;;;;;;8.80;7.80;;;20.10;1.00;;;;;;5032514;28;21331;-78
2021/06/11 03:50:39;;;;;;;8.10;7.30;;;20.10;1.00;;;;;;5033897;28;20538;-78
2021/06/11 03:53:06;;;;;;;9.57;8.20;;;20.20;1.00;;;;;;5030509;28;21833;-77
2021/06/11 03:55:40;;;;;;;11.40;7.13;;;20.20;1.00;;;;;;5032278;28;21317;-77
2021/06/11 03:58:13;;;;;;;15.50;8.33;;;20.30;1.00;;;;;;5032513;28;20457;-78
2021/06/11 04:00:42;;;;;;;11.67;7.33;;;20.30;1.00;;;;;;5031528;28;20465;-77
2021/06/11 04:03:08;;;;;;;11.37;7.40;;;20.30;1.00;;;;;;5030479;28;20446;-77
2021/06/11 04:05:34;;;;;;;23.37;21.00;;;20.40;1.00;;;;;;5032806;28;20490;-79
2021/06/11 04:08:01;;;;;;;24.77;9.53;;;20.40;1.00;;;;;;5033173;28;20546;-77
2021/06/11 04:10:31;;;;;;;17.17;9.17;;;20.40;1.00;;;;;;5030604;28;20461;-78
2021/06/11 04:13:02;;;;;;;20.63;9.80;;;20.50;1.00;;;;;;5037759;28;20461;-78
2021/06/11 04:15:34;;;;;;;17.30;8.30;;;20.50;1.00;;;;;;5030265;28;21026;-77
2021/06/11 04:18:03;;;;;;;9.97;7.53;;;20.40;1.00;;;;;;5031535;28;20471;-79
2021/06/11 04:20:30;;;;;;;13.97;9.73;;;20.40;1.00;;;;;;5039331;28;20485;-79
2021/06/11 04:23:00;;;;;;;10.03;6.90;;;20.40;1.00;;;;;;5021022;28;24441;-79
2021/06/11 04:25:29;;;;;;;12.20;8.77;;;20.30;1.00;;;;;;5038795;28;20485;-80
2021/06/11 04:27:58;;;;;;;9.00;7.73;;;20.30;1.00;;;;;;5039577;28;20457;-79
2021/06/11 04:30:25;;;;;;;11.07;9.97;;;20.20;1.00;;;;;;5039725;28;20540;-80
2021/06/11 04:32:54;;;;;;;7.90;6.70;;;20.20;1.00;;;;;;5043529;28;20465;-81
2021/06/11 04:35:22;;;;;;;11.40;9.10;;;20.20;1.00;;;;;;5045681;28;21352;-80
2021/06/11 04:37:48;;;;;;;9.20;8.00;;;20.20;1.00;;;;;;5042794;28;20468;-80
2021/06/11 04:40:15;;;;;;;8.10;7.30;;;20.20;1.00;;;;;;5043975;28;20488;-79
2021/06/11 04:42:41;;;;;;;8.43;7.53;;;20.30;1.00;;;;;;5043085;28;20449;-80
2021/06/11 04:45:09;;;;;;;8.47;7.77;;;20.30;1.00;;;;;;5044500;28;20433;-81
2021/06/11 04:47:35;;;;;;;9.43;8.07;;;20.30;1.00;;;;;;5047039;28;20496;-79
2021/06/11 04:50:03;;;;;;;9.20;8.13;;;20.40;1.00;;;;;;5045974;28;20493;-81
2021/06/11 04:52:29;;;;;;;11.17;8.13;;;20.40;1.00;;;;;;5046734;28;20497;-81
2021/06/11 04:54:56;;;;;;;8.47;7.80;;;20.50;1.00;;;;;;5047129;28;20535;-79
2021/06/11 04:57:22;;;;;;;8.47;7.40;;;20.50;1.00;;;;;;5052177;28;20472;-80
2021/06/11 04:59:48;;;;;;;8.13;7.40;;;20.60;1.00;;;;;;5054536;28;20505;-80
2021/06/11 05:02:14;;;;;;;7.87;7.17;;;20.60;1.00;;;;;;5046958;28;20469;-80
2021/06/11 05:04:41;;;;;;;6.57;5.97;;;20.70;1.00;;;;;;5042251;28;20448;-80
2021/06/11 05:07:08;;;;;;;8.47;7.60;;;20.80;1.00;;;;;;5038116;28;20469;-80
2021/06/11 05:09:34;;;;;;;8.00;7.20;;;20.80;1.00;;;;;;5041058;28;21324;-81
2021/06/11 05:12:00;;;;;;;7.40;6.80;;;20.90;1.00;;;;;;5039365;28;20433;-81
2021/06/11 05:14:27;;;;;;;8.93;7.30;;;21.00;1.00;;;;;;5039227;28;20473;-79
2021/06/11 05:16:53;;;;;;;7.97;6.33;;;21.00;1.00;;;;;;5044018;28;20506;-80
2021/06/11 05:19:19;;;;;;;8.17;6.30;;;21.20;1.00;;;;;;5046064;28;21229;-80
2021/06/11 05:21:46;;;;;;;6.33;5.73;;;21.30;1.00;;;;;;5045819;28;20912;-80
2021/06/11 05:24:14;;;;;;;9.70;7.57;;;21.40;1.00;;;;;;5043551;28;20414;-79
2021/06/11 05:26:40;;;;;;;9.90;8.00;;;21.50;1.00;;;;;;5053024;28;20442;-80
2021/06/11 05:29:07;;;;;;;11.93;9.17;;;21.50;1.00;;;;;;5033008;28;20536;-80
2021/06/11 05:31:33;;;;;;;10.00;7.23;;;21.60;1.00;;;;;;5043799;28;20457;-79
2021/06/11 05:34:00;;;;;;;7.93;6.73;;;21.70;1.00;;;;;;5048822;28;20462;-81
2021/06/11 05:36:26;;;;;;;8.27;6.07;;;21.80;1.00;;;;;;5048414;28;20432;-80
2021/06/11 05:38:52;;;;;;;12.70;6.77;;;21.80;1.00;;;;;;5048531;28;20446;-80
2021/06/11 05:41:20;;;;;;;9.80;6.60;;;21.90;1.00;;;;;;5047128;28;20454;-81
2021/06/11 05:43:46;;;;;;;11.90;6.23;;;22.00;1.00;;;;;;5047939;28;20495;-80
2021/06/11 05:46:13;;;;;;;9.60;8.30;;;22.10;1.00;;;;;;5044734;28;21108;-80
2021/06/11 05:48:41;;;;;;;8.23;7.40;;;22.30;1.00;;;;;;5028169;28;20457;-80
2021/06/11 05:51:07;;;;;;;13.23;12.13;;;22.30;1.00;;;;;;5042350;28;20442;-81
2021/06/11 05:53:33;;;;;;;10.97;8.00;;;22.50;1.00;;;;;;5049289;28;20453;-79
2021/06/11 05:56:01;;;;;;;14.00;7.30;;;22.60;1.00;;;;;;5037054;28;20445;-80
2021/06/11 05:58:28;;;;;;;12.17;8.13;;;22.70;1.00;;;;;;5034089;28;20554;-76
2021/06/11 06:00:55;;;;;;;9.33;6.90;;;22.80;1.00;;;;;;5032796;28;20537;-76
2021/06/11 06:03:21;;;;;;;7.83;6.93;;;22.90;1.00;;;;;;5036338;28;20571;-76
2021/06/11 06:05:48;;;;;;;11.47;10.37;;;23.00;1.00;;;;;;5035842;28;21310;-76
2021/06/11 06:08:14;;;;;;;14.50;10.40;;;23.10;1.00;;;;;;5029761;28;20555;-76
2021/06/11 06:10:40;;;;;;;10.03;9.23;;;23.30;1.00;;;;;;5032139;28;20455;-76
2021/06/11 06:13:07;;;;;;;8.23;7.40;;;23.30;1.00;;;;;;5009847;28;20563;-75
2021/06/11 06:15:34;;;;;;;11.63;10.07;;;23.40;1.00;;;;;;5046154;28;20506;-75
2021/06/11 06:18:01;;;;;;;10.00;9.10;;;23.60;1.00;;;;;;5015310;28;22004;-76
2021/06/11 06:20:27;;;;;;;12.40;9.50;;;23.60;1.00;;;;;;5038382;28;20539;-76
2021/06/11 06:22:53;;;;;;;10.80;8.87;;;23.70;1.00;;;;;;5026071;28;20425;-76
2021/06/11 06:25:20;;;;;;;12.80;9.17;;;23.70;1.00;;;;;;5048162;28;20454;-76
2021/06/11 06:27:46;;;;;;;10.10;9.20;;;23.80;1.00;;;;;;5045797;28;20440;-76
2021/06/11 06:30:15;;;;;;;13.20;9.90;;;23.80;1.00;;;;;;5050690;28;20528;-77
2021/06/11 06:32:43;;;;;;;11.17;9.90;;;23.80;1.00;;;;;;5044390;28;20444;-76
2021/06/11 06:35:11;;;;;;;8.43;7.63;;;23.80;1.00;;;;;;5039676;28;20448;-77
2021/06/11 06:37:38;;;;;;;10.00;8.93;;;23.90;1.00;;;;;;5047418;28;20680;-77
2021/06/11 06:40:06;;;;;;;10.70;9.57;;;24.00;1.00;;;;;;5050094;28;20728;-78
2021/06/11 06:42:33;;;;;;;10.80;9.70;;;24.00;1.00;;;;;;5042682;28;20569;-77
2021/06/11 06:44:59;;;;;;;8.83;8.17;;;24.10;1.00;;;;;;5044525;28;20443;-76
2021/06/11 06:47:25;;;;;;;10.47;9.50;;;24.10;1.00;;;;;;5047763;28;20429;-77
2021/06/11 06:49:53;;;;;;;12.37;11.10;;;24.20;1.00;;;;;;5046829;28;20429;-79
2021/06/11 06:52:19;;;;;;;9.63;8.83;;;24.20;1.00;;;;;;5049036;28;20409;-77
2021/06/11 06:54:45;;;;;;;12.27;9.53;;;24.20;1.00;;;;;;5048968;28;21385;-77
2021/06/11 06:57:13;;;;;;;9.87;9.07;;;24.30;1.00;;;;;;5044951;28;20482;-77
2021/06/11 06:59:39;;;;;;;10.20;9.30;;;24.20;1.00;;;;;;5039558;28;21163;-77
2021/06/11 07:02:05;;;;;;;10.27;9.27;;;24.20;1.00;;;;;;5035544;28;21275;-78
2021/06/11 07:04:32;;;;;;;9.83;9.03;;;24.20;1.00;;;;;;5032780;28;20507;-79
2021/06/11 07:06:59;;;;;;;9.93;8.93;;;24.30;1.00;;;;;;5039488;28;20433;-77
2021/06/11 07:09:28;;;;;;;9.37;8.67;;;24.30;1.00;;;;;;5037673;28;20442;-79
2021/06/11 07:11:54;;;;;;;9.77;8.83;;;24.50;1.00;;;;;;5040155;28;20456;-77
2021/06/11 07:14:23;;;;;;;10.77;9.83;;;24.50;1.00;;;;;;5038225;28;20680;-78
2021/06/11 07:16:50;;;;;;;9.53;8.63;;;24.50;1.00;;;;;;5036203;28;20462;-77
2021/06/11 07:19:16;;;;;;;10.00;9.07;;;24.70;1.00;;;;;;5036939;28;21040;-78
2021/06/11 07:21:42;;;;;;;10.70;9.60;;;24.80;1.00;;;;;;5037054;28;20466;-78
2021/06/11 07:24:10;;;;;;;11.13;10.03;;;24.90;1.00;;;;;;5039189;28;20455;-78
2021/06/11 07:26:37;;;;;;;10.43;9.63;;;25.00;1.00;;;;;;5023836;28;20445;-78
2021/06/11 07:29:03;;;;;;;10.30;9.50;;;24.90;1.00;;;;;;5035837;28;20453;-77
2021/06/11 07:31:29;;;;;;;9.77;8.80;;;25.00;1.00;;;;;;5040237;28;20573;-79
2021/06/11 07:33:55;;;;;;;9.90;9.10;;;25.10;1.00;;;;;;5043699;28;20473;-77
2021/06/11 07:36:22;;;;;;;10.53;9.70;;;25.20;1.00;;;;;;5039233;28;20450;-77
2021/06/11 07:38:48;;;;;;;10.90;10.00;;;25.30;1.00;;;;;;5034542;28;20452;-77
2021/06/11 07:41:16;;;;;;;9.50;8.70;;;25.40;1.00;;;;;;5032778;28;20525;-77
2021/06/11 07:43:42;;;;;;;10.93;9.93;;;25.50;1.00;;;;;;5031871;28;20537;-77
2021/06/11 07:46:08;;;;;;;13.03;11.73;;;25.60;1.00;;;;;;5033271;28;20958;-78
2021/06/11 07:48:34;;;;;;;10.43;9.63;;;25.70;1.00;;;;;;5033839;28;20526;-78
2021/06/11 07:51:00;;;;;;;11.43;9.50;;;25.70;1.00;;;;;;5032576;28;20491;-78
2021/06/11 07:53:27;;;;;;;13.10;11.87;;;25.70;1.00;;;;;;5033027;28;20465;-78
2021/06/11 07:55:53;;;;;;;10.13;9.20;;;25.70;1.00;;;;;;5034794;28;20472;-77
2021/06/11 07:58:20;;;;;;;9.63;8.63;;;25.80;1.00;;;;;;5034345;28;20511;-77
2021/06/11 08:00:46;;;;;;;8.90;8.20;;;25.90;1.00;;;;;;5035288;28;20556;-77
2021/06/11 08:03:13;;;;;;;9.60;8.80;;;26.10;1.00;;;;;;5038984;28;21349;-77
2021/06/11 08:05:39;;;;;;;10.73;9.80;;;26.30;1.00;;;;;;5047996;28;20433;-78
2021/06/11 08:08:06;;;;;;;11.27;10.27;;;26.50;1.00;;;;;;5040375;28;20513;-78
2021/06/11 08:10:32;;;;;;;12.13;11.23;;;26.70;1.00;;;;;;5033419;28;20469;-78
2021/06/11 08:12:58;;;;;;;12.10;11.00;;;26.70;1.00;;;;;;5033334;28;21193;-79
2021/06/11 08:15:26;;;;;;;10.53;9.60;;;26.60;1.00;;;;;;5037649;28;20470;-77
2021/06/11 08:17:53;;;;;;;9.77;8.97;;;26.50;1.00;;;;;;5036054;28;20456;-78
2021/06/11 08:20:19;;;;;;;9.97;9.17;;;26.50;1.00;;;;;;5040232;28;20477;-78
2021/06/11 08:22:46;;;;;;;10.40;9.50;;;26.80;1.00;;;;;;5034259;28;20536;-77
2021/06/11 08:25:14;;;;;;;11.63;10.70;;;26.70;1.00;;;;;;5035918;28;20457;-78
2021/06/11 08:27:41;;;;;;;13.90;11.37;;;26.60;1.00;;;;;;5035002;28;20456;-77
2021/06/11 08:30:08;;;;;;;11.60;10.70;;;26.50;1.00;;;;;;5035693;28;20462;-77
2021/06/11 08:32:36;;;;;;;20.20;9.70;;;26.40;1.00;;;;;;5035983;28;20458;-78
2021/06/11 08:35:03;;;;;;;9.57;8.87;;;26.40;1.00;;;;;;5036827;28;20494;-77
2021/06/11 08:37:29;;;;;;;9.17;8.30;;;26.40;1.00;;;;;;5039554;28;20510;-79
2021/06/11 08:39:57;;;;;;;10.80;9.80;;;26.40;1.00;;;;;;5045509;28;20448;-78
2021/06/11 08:42:28;;;;;;;10.40;9.50;;;26.50;1.00;;;;;;5031948;28;20457;-77
2021/06/11 08:44:56;;;;;;;9.03;8.20;;;26.70;1.00;;;;;;5030690;28;20488;-78
2021/06/11 08:47:24;;;;;;;10.10;9.33;;;26.90;1.00;;;;;;5034331;28;20487;-78
2021/06/11 08:49:52;;;;;;;9.53;8.77;;;27.10;1.00;;;;;;5031987;28;20517;-76
2021/06/11 08:52:18;;;;;;;9.13;8.30;;;27.40;1.00;;;;;;5032790;28;20414;-77
2021/06/11 08:54:44;;;;;;;8.87;8.17;;;27.60;1.00;;;;;;5040253;28;20509;-77
2021/06/11 08:57:11;;;;;;;20.23;9.50;;;27.80;1.00;;;;;;5024836;28;20432;-76
2021/06/11 08:59:38;;;;;;;9.00;8.27;;;27.90;1.00;;;;;;5036061;28;20541;-77
2021/06/11 09:02:04;;;;;;;8.50;7.80;;;28.20;1.00;;;;;;5027941;28;20455;-77
2021/06/11 09:04:45;;;;;;;7.80;7.20;;;28.50;1.00;;;;;;5032589;28;20448;-77
2021/06/11 09:07:27;;;;;;;7.07;6.43;;;29.00;1.00;;;;;;5026324;28;20504;-78
2021/06/11 09:09:59;;;;;;;8.67;7.87;;;29.20;1.00;;;;;;5029765;28;23065;-81
2021/06/11 09:12:34;;;;;;;7.67;6.90;;;29.50;1.00;;;;;;5030502;28;20478;-78
2021/06/11 09:15:03;;;;;;;8.10;7.50;;;29.70;1.00;;;;;;5029059;28;20470;-76
2021/06/11 09:17:35;;;;;;;8.40;7.70;;;30.00;1.00;;;;;;5032259;28;20449;-79
2021/06/11 09:20:03;;;;;;;8.87;8.07;;;30.00;1.00;;;;;;5032712;28;20464;-77
2021/06/11 09:22:44;;;;;;;7.20;6.60;;;29.90;1.00;;;;;;5038552;28;20461;-77
2021/06/11 09:25:32;;;;;;;10.43;7.93;;;29.80;1.00;;;;;;5033834;28;21247;-77
2021/06/11 09:28:00;;;;;;;7.43;6.73;;;29.90;1.00;;;;;;5029473;28;20465;-79
2021/06/11 09:30:33;;;;;;;7.90;6.13;;;29.70;1.00;;;;;;5026271;28;21750;-77
2021/06/11 09:33:01;;;;;;;7.10;6.50;;;29.40;1.00;;;;;;5033465;28;20449;-78
2021/06/11 09:35:34;;;;;;;6.87;6.37;;;29.20;1.00;;;;;;5032635;28;20471;-77
2021/06/11 09:38:11;;;;;;;9.80;7.40;;;28.90;1.00;;;;;;5033301;28;20465;-77
2021/06/11 09:40:38;;;;;;;7.50;6.90;;;28.60;1.00;;;;;;5030091;28;20486;-79
2021/06/11 09:43:06;;;;;;;15.23;14.03;;;29.80;1.00;;;;;;5032980;28;20471;-79
2021/06/11 09:45:32;;;;;;;6.40;5.60;;;31.30;1.00;;;;;;5032101;28;21015;-77
2021/06/11 09:47:59;;;;;;;8.00;5.60;;;32.80;1.00;;;;;;5034315;28;20464;-79
2021/06/11 09:50:28;;;;;;;7.60;6.13;;;34.10;1.00;;;;;;5029964;28;20445;-78
2021/06/11 09:53:00;;;;;;;6.60;6.10;;;34.40;1.00;;;;;;5032504;28;20448;-80
2021/06/11 09:55:42;;;;;;;7.50;6.70;;;33.40;1.00;;;;;;5019646;28;20507;-79
2021/06/11 09:58:12;;;;;;;7.33;6.17;;;32.10;1.00;;;;;;5034468;28;20523;-81
2021/06/11 10:00:56;;;;;;;5.97;5.57;;;32.40;1.00;;;;;;5040594;28;20460;-79
2021/06/11 10:03:25;;;;;;;5.87;5.37;;;33.60;1.00;;;;;;5034721;28;21073;-82
2021/06/11 10:05:53;;;;;;;5.00;4.60;;;35.00;1.00;;;;;;5037946;28;20517;-81
2021/06/11 10:08:21;;;;;;;4.77;4.47;;;35.90;1.00;;;;;;5035897;28;20659;-80
2021/06/11 10:10:50;;;;;;;6.70;4.43;;;36.20;1.00;;;;;;5036053;28;20923;-80
2021/06/11 10:13:17;;;;;;;4.90;4.37;;;36.60;1.00;;;;;;5039437;28;20413;-81
2021/06/11 10:15:45;;;;;;;4.00;3.70;;;37.20;1.00;;;;;;5038175;28;20460;-81
2021/06/11 10:18:13;;;;;;;4.50;3.93;;;38.00;1.00;;;;;;5021477;28;20855;-80
2021/06/11 10:20:40;;;;;;;5.03;4.63;;;38.40;1.00;;;;;;5038077;28;20547;-81
2021/06/11 10:23:07;;;;;;;4.63;4.30;;;38.90;1.00;;;;;;5041884;28;20555;-81
2021/06/11 10:25:34;;;;;;;4.93;4.50;;;39.60;1.00;;;;;;5041256;28;20469;-82
2021/06/11 10:28:03;;;;;;;4.77;4.40;;;39.30;1.00;;;;;;5044462;28;20454;-81
2021/06/11 10:30:31;;;;;;;4.90;4.50;;;39.10;1.00;;;;;;5038838;28;20448;-81
2021/06/11 10:32:59;;;;;;;5.70;4.57;;;38.70;1.00;;;;;;5039248;28;20520;-82
2021/06/11 10:35:46;;;;;;;5.33;4.83;;;39.00;1.00;;;;;;5038072;28;20448;-79
2021/06/11 10:38:28;;;;;;;5.30;4.80;;;39.50;1.00;;;;;;5034887;28;20435;-81
2021/06/11 10:40:57;;;;;;;4.33;4.03;;;38.70;1.00;;;;;;5041319;28;20461;-81
2021/06/11 10:43:28;;;;;;;3.50;3.30;;;37.40;1.00;;;;;;5039405;28;20543;-81
2021/06/11 10:45:55;;;;;;;4.07;3.70;;;37.50;1.00;;;;;;5038092;28;21111;-81
2021/06/11 10:48:23;;;;;;;4.80;4.30;;;38.10;1.00;;;;;;5037695;28;20427;-81
2021/06/11 10:50:50;;;;;;;8.20;4.47;;;38.80;1.00;;;;;;5041450;28;20508;-81
2021/06/11 10:53:30;;;;;;;3.70;3.40;;;39.30;1.00;;;;;;5035744;28;20568;-82
2021/06/11 10:56:15;;;;;;;3.47;3.23;;;39.90;1.00;;;;;;5035677;28;20516;-81
2021/06/11 10:58:45;;;;;;;5.77;4.27;;;40.50;1.00;;;;;;5035666;28;20510;-81
2021/06/11 11:01:25;;;;;;;3.90;3.37;;;41.00;1.00;;;;;;5036827;28;20496;-81
2021/06/11 11:03:52;;;;;;;3.90;3.70;;;41.00;1.00;;;;;;5020164;28;20464;-81
2021/06/11 11:06:30;;;;;;;6.40;6.00;;;40.00;1.00;;;;;;5045674;28;20473;-82
2021/06/11 11:08:58;;;;;;;3.10;2.90;;;40.10;1.00;;;;;;5044669;28;20591;-81
2021/06/11 11:11:30;;;;;;;2.90;2.70;;;40.60;1.00;;;;;;5050878;28;20452;-81
2021/06/11 11:13:58;;;;;;;3.23;2.93;;;40.90;1.00;;;;;;5057685;28;20459;-80
2021/06/11 11:16:26;;;;;;;3.43;3.13;;;40.50;1.00;;;;;;5045743;28;20523;-81
2021/06/11 11:18:53;;;;;;;3.93;3.53;;;40.40;1.00;;;;;;5045462;28;21588;-80
2021/06/11 11:21:25;;;;;;;3.57;3.07;;;40.90;1.00;;;;;;5027605;28;20496;-82
2021/06/11 11:23:54;;;;;;;2.93;2.73;;;41.30;1.00;;;;;;5040663;28;20559;-81
2021/06/11 11:26:21;;;;;;;3.50;3.20;;;42.00;1.00;;;;;;5042536;28;20494;-81
2021/06/11 11:28:47;;;;;;;4.47;3.37;;;42.10;1.00;;;;;;5025599;28;20437;-81
2021/06/11 11:31:15;;;;;;;4.27;3.53;;;40.40;1.00;;;;;;5043028;28;20535;-80
2021/06/11 11:33:41;;;;;;;4.83;4.03;;;38.20;1.00;;;;;;5040600;28;20440;-80
2021/06/11 11:36:08;;;;;;;4.50;4.13;;;36.50;1.00;;;;;;5043168;28;20464;-80
2021/06/11 11:38:34;;;;;;;5.10;4.70;;;36.30;1.00;;;;;;5036693;28;20463;-80
2021/06/11 11:41:00;;;;;;;4.53;4.13;;;36.60;1.00;;;;;;5036730;28;20431;-80
2021/06/11 11:43:26;;;;;;;4.00;3.60;;;36.90;1.00;;;;;;5036763;28;20460;-81
2021/06/11 11:45:52;;;;;;;3.63;3.13;;;38.00;1.00;;;;;;5037244;28;20453;-84
2021/06/11 11:48:23;;;;;;;3.67;3.37;;;39.00;1.00;;;;;;5047587;28;20479;-82
2021/06/11 11:50:50;;;;;;;3.37;3.07;;;40.00;1.00;;;;;;5044175;28;20464;-83
2021/06/11 11:53:16;;;;;;;2.20;2.00;;;41.10;1.00;;;;;;5045799;28;21223;-82
2021/06/11 11:55:42;;;;;;;5.13;3.70;;;41.30;1.00;;;;;;5046317;28;20447;-81
2021/06/11 11:58:10;;;;;;;2.77;2.53;;;40.00;1.00;;;;;;5043708;28;20432;-82
2021/06/11 12:00:36;;;;;;;2.47;2.10;;;40.00;1.00;;;;;;5028666;28;20445;-82
2021/06/11 12:03:02;;;;;;;4.20;2.47;;;40.50;1.00;;;;;;5021220;28;20520;-80
2021/06/11 12:05:30;;;;;;;3.73;3.43;;;40.60;1.00;;;;;;5038015;28;20451;-81
2021/06/11 12:07:57;;;;;;;4.20;3.10;;;40.80;1.00;;;;;;5023017;28;20463;-82
2021/06/11 12:10:24;;;;;;;5.73;5.33;;;40.50;1.00;;;;;;5040916;28;20488;-82
2021/06/11 12:12:50;;;;;;;3.30;3.00;;;40.80;1.00;;;;;;5043887;28;20573;-78
2021/06/11 12:15:18;;;;;;;4.03;3.73;;;41.40;1.00;;;;;;5037943;28;21328;-79
2021/06/11 12:17:44;;;;;;;5.23;3.00;;;41.70;1.00;;;;;;5038423;28;20423;-77
2021/06/11 12:20:12;;;;;;;4.23;3.83;;;42.20;1.00;;;;;;5019627;28;20472;-78
2021/06/11 12:22:39;;;;;;;3.80;2.80;;;42.40;1.00;;;;;;5034630;28;20469;-78
2021/06/11 12:25:06;;;;;;;2.93;2.73;;;41.60;1.00;;;;;;5014042;28;21284;-79
2021/06/11 12:27:32;;;;;;;5.07;3.33;;;39.80;1.00;;;;;;5033577;28;20876;-77
2021/06/11 12:29:58;;;;;;;2.90;2.70;;;39.20;1.00;;;;;;5035209;28;20460;-79
2021/06/11 12:32:24;;;;;;;2.57;2.40;;;39.80;1.00;;;;;;5029019;28;20433;-78
2021/06/11 12:34:50;;;;;;;2.80;2.60;;;40.30;1.00;;;;;;5031239;28;20952;-78
2021/06/11 12:37:17;;;;;;;3.30;3.00;;;41.10;1.00;;;;;;5033195;28;20987;-78
2021/06/11 12:39:45;;;;;;;2.60;2.30;;;40.90;1.00;;;;;;5034091;28;20440;-79
2021/06/11 12:42:14;;;;;;;5.53;2.73;;;41.20;1.00;;;;;;5031696;28;21181;-77
2021/06/11 12:44:40;;;;;;;2.20;1.77;;;41.60;1.00;;;;;;5036300;28;21117;-76
2021/06/11 12:47:10;;;;;;;2.57;1.90;;;42.30;1.00;;;;;;5034582;28;21030;-79
2021/06/11 12:49:36;;;;;;;2.37;2.17;;;42.90;1.00;;;;;;5028982;28;20472;-77
2021/06/11 12:52:03;;;;;;;2.60;2.33;;;42.60;1.00;;;;;;5011954;28;20519;-77
2021/06/11 12:54:29;;;;;;;4.33;2.30;;;41.00;1.00;;;;;;5028098;28;20464;-78
2021/06/11 12:56:57;;;;;;;3.93;2.07;;;39.40;1.00;;;;;;5041463;28;21774;-79